createdAt,value
2023-08-23T00:01:48.824Z,24.81
2023-08-23T00:04:20.428Z,24.79
2023-08-23T00:06:50.663Z,24.76
2023-08-23T00:09:20.767Z,24.73
2023-08-23T00:11:51.173Z,24.70
2023-08-23T00:14:21.517Z,24.66
2023-08-23T00:16:51.793Z,24.61
2023-08-23T00:19:21.960Z,24.61
2023-08-23T00:21:52.153Z,24.67
2023-08-23T00:24:23.854Z,24.67
2023-08-23T00:26:54.142Z,24.72
2023-08-23T00:29:25.160Z,24.79
2023-08-23T00:31:55.335Z,24.82
2023-08-23T00:34:25.642Z,24.83
2023-08-23T00:36:55.831Z,24.79
2023-08-23T00:39:26.510Z,24.73
2023-08-23T00:41:56.751Z,24.67
2023-08-23T00:44:27.019Z,24.60
2023-08-23T00:46:57.329Z,24.53
2023-08-23T00:49:27.530Z,24.54
2023-08-23T00:51:57.833Z,24.57
2023-08-23T00:54:28.069Z,24.63
2023-08-23T00:56:58.296Z,24.66
2023-08-23T00:59:28.540Z,24.69
2023-08-23T01:01:59.098Z,24.75
2023-08-23T01:04:29.620Z,24.77
2023-08-23T01:07:14.195Z,24.72
2023-08-23T01:10:00.392Z,24.64
2023-08-23T01:12:42.021Z,24.54
2023-08-23T01:15:14.098Z,24.44
2023-08-23T01:17:46.177Z,24.29
2023-08-23T01:20:16.809Z,24.23
2023-08-23T01:22:55.904Z,24.21
2023-08-23T01:25:26.150Z,24.24
2023-08-23T01:27:57.631Z,24.30
2023-08-23T01:30:28.316Z,24.36
2023-08-23T01:33:01.191Z,24.41
2023-08-23T01:35:39.717Z,24.45
2023-08-23T01:38:09.988Z,24.49
2023-08-23T01:40:40.293Z,24.53
2023-08-23T01:43:10.637Z,24.55
2023-08-23T01:45:41.133Z,24.60
2023-08-23T01:48:13.719Z,24.62
2023-08-23T01:50:44.105Z,24.58
2023-08-23T01:53:14.371Z,24.44
2023-08-23T01:55:44.598Z,24.39
2023-08-23T01:58:14.863Z,24.28
2023-08-23T02:00:49.843Z,24.19
2023-08-23T02:03:20.259Z,24.15
2023-08-23T02:05:50.853Z,24.19
2023-08-23T02:08:21.066Z,24.23
2023-08-23T02:10:51.304Z,24.27
2023-08-23T02:13:21.415Z,24.32
2023-08-23T02:15:52.062Z,24.37
2023-08-23T02:18:23.249Z,24.42
2023-08-23T02:21:00.106Z,24.45
2023-08-23T02:23:30.434Z,24.48
2023-08-23T02:26:00.774Z,24.52
2023-08-23T02:28:31.129Z,24.55
2023-08-23T02:31:07.643Z,24.57
2023-08-23T02:33:39.202Z,24.59
2023-08-23T02:36:10.127Z,24.62
2023-08-23T02:38:40.332Z,24.64
2023-08-23T02:41:10.621Z,24.65
2023-08-23T02:43:41.016Z,24.68
2023-08-23T02:46:11.242Z,24.70
2023-08-23T02:48:41.435Z,24.72
2023-08-23T02:51:11.602Z,24.73
2023-08-23T02:53:41.792Z,24.75
2023-08-23T02:56:11.974Z,24.79
2023-08-23T02:58:42.188Z,24.80
2023-08-23T03:01:12.599Z,24.82
2023-08-23T03:03:42.834Z,24.84
2023-08-23T03:06:13.052Z,24.85
2023-08-23T03:08:43.439Z,24.88
2023-08-23T03:11:16.635Z,24.89
2023-08-23T03:13:46.806Z,24.90
2023-08-23T03:16:17.107Z,24.93
2023-08-23T03:18:47.710Z,24.93
2023-08-23T03:21:18.002Z,24.95
2023-08-23T03:23:48.506Z,24.97
2023-08-23T03:26:18.827Z,24.99
2023-08-23T03:28:49.242Z,24.99
2023-08-23T03:31:19.699Z,25.02
2023-08-23T03:33:51.483Z,25.03
2023-08-23T03:36:21.694Z,25.05
2023-08-23T03:38:52.169Z,25.07
2023-08-23T03:41:22.690Z,25.08
2023-08-23T03:43:53.137Z,25.11
2023-08-23T03:46:27.652Z,25.13
2023-08-23T03:48:57.928Z,25.13
2023-08-23T03:51:28.281Z,25.16
2023-08-23T03:53:58.506Z,25.16
2023-08-23T03:56:28.652Z,25.18
2023-08-23T03:59:00.329Z,25.21
2023-08-23T04:01:31.646Z,25.22
2023-08-23T04:04:02.166Z,25.23
2023-08-23T04:06:32.693Z,25.25
2023-08-23T04:09:02.944Z,25.26
2023-08-23T04:11:33.256Z,25.28
2023-08-23T04:14:03.354Z,25.29
2023-08-23T04:16:34.814Z,25.31
2023-08-23T04:19:05.308Z,25.31
2023-08-23T04:21:35.550Z,25.33
2023-08-23T04:24:05.968Z,25.35
2023-08-23T04:26:36.222Z,25.35
2023-08-23T04:29:06.395Z,25.37
2023-08-23T04:31:36.636Z,25.39
2023-08-23T04:34:07.849Z,25.39
2023-08-23T04:36:39.008Z,25.41
2023-08-23T04:39:10.127Z,25.45
2023-08-23T04:41:41.172Z,25.40
2023-08-23T04:44:11.973Z,25.30
2023-08-23T04:46:42.388Z,25.20
2023-08-23T04:49:12.765Z,25.15
2023-08-23T04:51:42.979Z,25.14
2023-08-23T04:54:13.271Z,25.16
2023-08-23T04:56:43.638Z,25.19
2023-08-23T04:59:13.903Z,25.22
2023-08-23T05:01:44.167Z,25.25
2023-08-23T05:04:14.535Z,25.27
2023-08-23T05:06:44.867Z,25.29
2023-08-23T05:09:20.115Z,25.30
2023-08-23T05:11:53.371Z,25.32
2023-08-23T05:14:22.261Z,25.34
2023-08-23T05:16:52.644Z,25.36
2023-08-23T05:19:22.929Z,25.38
2023-08-23T05:21:52.882Z,25.39
2023-08-23T05:24:41.916Z,25.36
2023-08-23T05:27:12.430Z,25.41
2023-08-23T05:29:42.872Z,25.41
2023-08-23T05:32:13.245Z,25.45
2023-08-23T05:34:43.578Z,25.40
2023-08-23T05:37:15.494Z,25.32
2023-08-23T05:39:45.758Z,25.22
2023-08-23T05:42:16.078Z,25.19
2023-08-23T05:44:46.489Z,25.19
2023-08-23T05:47:16.944Z,25.21
2023-08-23T05:49:47.155Z,25.25
2023-08-23T05:52:17.294Z,25.26
2023-08-23T05:54:47.659Z,25.29
2023-08-23T05:57:17.902Z,25.31
2023-08-23T05:59:48.377Z,25.33
2023-08-23T06:02:18.886Z,25.35
2023-08-23T06:04:49.498Z,25.36
2023-08-23T06:07:19.611Z,25.38
2023-08-23T06:09:50.004Z,25.39
2023-08-23T06:12:21.205Z,25.42
2023-08-23T06:14:51.877Z,25.39
2023-08-23T06:17:22.346Z,25.30
2023-08-23T06:19:52.927Z,25.17
2023-08-23T06:22:23.130Z,25.06
2023-08-23T06:24:53.537Z,25.03
2023-08-23T06:27:23.682Z,25.02
2023-08-23T06:29:54.092Z,25.06
2023-08-23T06:32:25.771Z,25.09
2023-08-23T06:34:55.907Z,25.12
2023-08-23T06:37:25.943Z,25.15
2023-08-23T06:39:56.219Z,25.18
2023-08-23T06:42:26.672Z,25.20
2023-08-23T06:44:58.069Z,25.21
2023-08-23T06:47:28.940Z,25.26
2023-08-23T06:49:59.346Z,25.26
2023-08-23T06:52:49.330Z,25.27
2023-08-23T06:55:21.295Z,25.29
2023-08-23T06:57:52.876Z,25.32
2023-08-23T07:00:23.540Z,25.33
2023-08-23T07:02:54.057Z,25.33
2023-08-23T07:05:43.423Z,25.36
2023-08-23T07:08:14.264Z,25.37
2023-08-23T07:10:45.410Z,25.39
2023-08-23T07:13:16.040Z,25.32
2023-08-23T07:15:46.776Z,25.17
2023-08-23T07:18:37.084Z,25.06
2023-08-23T07:21:07.285Z,25.05
2023-08-23T07:23:37.708Z,25.06
2023-08-23T07:26:10.682Z,25.08
2023-08-23T07:28:41.278Z,25.12
2023-08-23T07:31:12.410Z,25.13
2023-08-23T07:33:43.670Z,25.17
2023-08-23T07:36:14.937Z,25.19
2023-08-23T07:38:45.340Z,25.21
2023-08-23T07:41:15.568Z,25.24
2023-08-23T07:43:45.864Z,25.26
2023-08-23T07:48:45.437Z,25.29
2023-08-23T07:51:15.707Z,25.29
2023-08-23T07:53:45.778Z,25.31
2023-08-23T07:56:19.419Z,25.33
2023-08-23T07:58:51.044Z,25.34
2023-08-23T08:01:42.012Z,25.36
2023-08-23T08:04:12.991Z,25.37
2023-08-23T08:06:44.310Z,25.32
2023-08-23T08:09:14.988Z,25.20
2023-08-23T08:11:45.158Z,25.05
2023-08-23T08:14:15.404Z,25.01
2023-08-23T08:16:45.591Z,25.01
2023-08-23T08:19:15.845Z,25.05
2023-08-23T08:21:46.044Z,25.06
2023-08-23T08:24:16.395Z,25.10
2023-08-23T08:26:46.750Z,25.12
2023-08-23T08:29:18.463Z,25.15
2023-08-23T08:31:52.702Z,25.16
2023-08-23T08:34:22.810Z,25.20
2023-08-23T08:36:53.045Z,25.21
2023-08-23T08:39:23.305Z,25.23
2023-08-23T08:42:13.807Z,25.24
2023-08-23T08:44:45.379Z,25.26
2023-08-23T08:47:15.649Z,25.28
2023-08-23T08:49:45.947Z,25.29
2023-08-23T08:52:16.449Z,25.30
2023-08-23T08:54:47.640Z,25.31
2023-08-23T08:57:17.720Z,25.32
2023-08-23T08:59:48.087Z,25.34
2023-08-23T09:02:18.749Z,25.35
2023-08-23T09:04:49.593Z,25.36
2023-08-23T09:07:20.042Z,25.38
2023-08-23T09:09:50.280Z,25.38
2023-08-23T09:12:20.514Z,25.40
2023-08-23T09:14:53.740Z,25.39
2023-08-23T09:17:25.480Z,25.30
2023-08-23T09:19:56.083Z,25.16
2023-08-23T09:22:26.456Z,25.01
2023-08-23T09:24:57.022Z,24.98
2023-08-23T09:27:36.540Z,24.97
2023-08-23T09:30:00.665Z,24.99
2023-08-23T09:32:31.148Z,25.03
2023-08-23T09:35:02.654Z,25.06
2023-08-23T09:37:32.965Z,25.08
2023-08-23T09:40:03.280Z,25.10
2023-08-23T09:42:33.633Z,25.13
2023-08-23T09:45:04.153Z,25.15
2023-08-23T09:47:34.704Z,25.17
2023-08-23T09:50:05.652Z,25.19
2023-08-23T09:52:56.264Z,25.20
2023-08-23T09:55:26.855Z,25.23
2023-08-23T09:57:57.213Z,25.24
2023-08-23T10:00:28.224Z,25.25
2023-08-23T10:03:01.874Z,25.26
2023-08-23T10:05:32.245Z,25.29
2023-08-23T10:08:02.894Z,25.30
2023-08-23T10:10:33.676Z,25.30
2023-08-23T10:13:06.195Z,25.32
2023-08-23T10:15:37.656Z,25.33
2023-08-23T10:18:12.113Z,25.33
2023-08-23T10:20:42.930Z,25.35
2023-08-23T10:23:18.591Z,25.34
2023-08-23T10:25:50.247Z,25.36
2023-08-23T10:28:20.544Z,25.37
2023-08-23T10:30:54.056Z,25.38
2023-08-23T10:33:23.356Z,25.38
2023-08-23T10:35:53.483Z,25.29
2023-08-23T10:38:24.075Z,25.14
2023-08-23T10:40:54.446Z,25.09
2023-08-23T10:43:26.020Z,25.07
2023-08-23T10:45:58.797Z,25.09
2023-08-23T10:48:29.288Z,25.11
2023-08-23T10:50:59.469Z,25.13
2023-08-23T10:53:29.987Z,25.16
2023-08-23T10:56:01.546Z,25.17
2023-08-23T10:58:33.421Z,25.20
2023-08-23T11:01:03.663Z,25.22
2023-08-23T11:03:36.806Z,25.24
2023-08-23T11:06:07.287Z,25.24
2023-08-23T11:08:37.690Z,25.26
2023-08-23T11:11:09.667Z,25.27
2023-08-23T11:13:39.835Z,25.28
2023-08-23T11:16:10.235Z,25.30
2023-08-23T11:18:40.839Z,25.31
2023-08-23T11:21:11.207Z,25.32
2023-08-23T11:23:41.567Z,25.32
2023-08-23T11:26:11.689Z,25.33
2023-08-23T11:28:42.056Z,25.34
2023-08-23T11:31:31.421Z,25.36
2023-08-23T11:34:02.440Z,25.36
2023-08-23T11:36:33.750Z,25.37
2023-08-23T11:39:16.839Z,25.37
2023-08-23T11:41:47.393Z,25.38
2023-08-23T11:44:17.655Z,25.38
2023-08-23T11:46:48.458Z,25.39
2023-08-23T11:49:20.085Z,25.40
2023-08-23T11:51:53.897Z,25.41
2023-08-23T11:54:26.985Z,25.42
2023-08-23T11:56:57.169Z,25.43
2023-08-23T11:59:27.410Z,25.43
2023-08-23T12:01:58.274Z,25.42
2023-08-23T12:04:28.806Z,25.43
2023-08-23T12:06:59.112Z,25.45
2023-08-23T12:09:29.307Z,25.45
2023-08-23T12:12:00.907Z,25.44
2023-08-23T12:14:31.072Z,25.45
2023-08-23T12:17:01.572Z,25.46
2023-08-23T12:19:33.336Z,25.46
2023-08-23T12:22:03.533Z,25.47
2023-08-23T12:24:33.712Z,25.47
2023-08-23T12:27:03.870Z,25.47
2023-08-23T12:29:34.437Z,25.48
2023-08-23T12:32:04.706Z,25.48
2023-08-23T12:34:40.259Z,25.49
2023-08-23T12:37:13.189Z,25.49
2023-08-23T12:40:02.749Z,25.48
2023-08-23T12:42:32.881Z,25.50
2023-08-23T12:45:23.607Z,25.50
2023-08-23T12:47:56.482Z,25.50
2023-08-23T12:50:26.025Z,25.50
2023-08-23T12:52:56.250Z,25.51
2023-08-23T12:55:26.512Z,25.50
2023-08-23T12:57:56.481Z,25.52
2023-08-23T13:00:32.068Z,25.52
2023-08-23T13:02:58.426Z,25.50
2023-08-23T13:05:29.202Z,25.37
2023-08-23T13:07:59.188Z,25.19
2023-08-23T13:10:29.557Z,24.98
2023-08-23T13:12:59.529Z,24.81
2023-08-23T13:15:29.836Z,24.65
2023-08-23T13:18:01.394Z,24.49
2023-08-23T13:20:31.512Z,24.43
2023-08-23T13:23:03.132Z,24.44
2023-08-23T13:25:33.266Z,24.47
2023-08-23T13:28:03.276Z,24.50
2023-08-23T13:30:33.493Z,24.58
2023-08-23T13:33:03.710Z,24.64
2023-08-23T13:35:33.656Z,24.63
2023-08-23T13:38:04.141Z,24.49
2023-08-23T13:40:34.149Z,24.34
2023-08-23T13:43:16.101Z,24.31
2023-08-23T13:45:35.892Z,24.35
2023-08-23T13:48:06.156Z,24.38
2023-08-23T13:50:36.267Z,24.43
2023-08-23T13:53:06.722Z,24.46
2023-08-23T13:55:36.900Z,24.50
2023-08-23T13:58:07.199Z,24.54
2023-08-23T14:00:37.179Z,24.53
2023-08-23T14:03:07.951Z,24.46
2023-08-23T14:05:38.262Z,24.43
2023-08-23T14:08:08.971Z,24.46
2023-08-23T14:10:39.584Z,24.51
2023-08-23T14:13:10.565Z,24.51
2023-08-23T14:15:40.560Z,24.55
2023-08-23T14:18:10.688Z,24.57
2023-08-23T14:20:40.707Z,24.51
2023-08-23T14:23:11.619Z,24.45
2023-08-23T14:25:42.149Z,24.44
2023-08-23T14:28:12.092Z,24.46
2023-08-23T14:30:43.678Z,24.49
2023-08-23T14:33:17.207Z,24.52
2023-08-23T14:35:48.252Z,24.54
2023-08-23T14:38:18.522Z,24.58
2023-08-23T14:40:49.526Z,24.54
2023-08-23T14:43:21.573Z,24.51
2023-08-23T14:45:51.859Z,24.54
2023-08-23T14:48:23.362Z,24.56
2023-08-23T14:50:53.697Z,24.59
2023-08-23T14:53:23.698Z,24.62
2023-08-23T14:55:54.165Z,24.63
2023-08-23T14:58:25.450Z,24.60
2023-08-23T15:00:55.481Z,24.62
2023-08-23T15:03:25.540Z,24.64
2023-08-23T15:05:59.130Z,24.65
2023-08-23T15:08:30.452Z,24.67
2023-08-23T15:11:02.969Z,24.65
2023-08-23T15:13:32.165Z,24.65
2023-08-23T15:16:02.324Z,24.66
2023-08-23T15:18:32.588Z,24.67
2023-08-23T15:21:02.606Z,24.70
2023-08-23T15:23:32.677Z,24.70
2023-08-23T15:26:04.499Z,24.69
2023-08-23T15:28:40.558Z,24.68
2023-08-23T15:31:06.464Z,24.70
2023-08-23T15:33:36.503Z,24.73
2023-08-23T15:36:07.370Z,24.75
2023-08-23T15:38:37.358Z,24.73
2023-08-23T15:41:08.904Z,24.72
2023-08-23T15:43:38.816Z,24.73
2023-08-23T15:46:08.791Z,24.76
2023-08-23T15:48:38.997Z,24.79
2023-08-23T15:51:09.055Z,24.80
2023-08-23T15:53:40.536Z,24.76
2023-08-23T15:56:10.737Z,24.77
2023-08-23T15:58:40.965Z,24.79
2023-08-23T16:01:10.988Z,24.81
2023-08-23T16:03:41.396Z,24.83
2023-08-23T16:06:11.486Z,24.85
2023-08-23T16:08:41.504Z,24.77
2023-08-23T16:11:11.545Z,24.75
2023-08-23T16:13:42.949Z,24.75
2023-08-23T16:16:13.066Z,24.77
2023-08-23T16:18:43.139Z,24.80
2023-08-23T16:21:13.265Z,24.79
2023-08-23T16:23:45.606Z,24.80
2023-08-23T16:26:15.050Z,24.81
2023-08-23T16:28:45.066Z,24.85
2023-08-23T16:31:15.012Z,24.87
2023-08-23T16:33:45.206Z,24.88
2023-08-23T16:36:15.630Z,24.83
2023-08-23T16:38:45.775Z,24.73
2023-08-23T16:41:15.897Z,24.63
2023-08-23T16:43:46.021Z,24.53
2023-08-23T16:46:16.018Z,24.44
2023-08-23T16:48:48.407Z,24.34
2023-08-23T16:51:18.866Z,24.26
2023-08-23T16:53:49.110Z,24.16
2023-08-23T16:56:20.288Z,24.05
2023-08-23T16:58:51.282Z,24.04
2023-08-23T17:01:22.575Z,24.07
2023-08-23T17:03:53.469Z,24.11
2023-08-23T17:06:23.648Z,24.17
2023-08-23T17:08:55.131Z,24.24
2023-08-23T17:11:25.360Z,24.28
2023-08-23T17:13:55.645Z,24.26
2023-08-23T17:16:28.365Z,24.20
2023-08-23T17:18:59.007Z,24.11
2023-08-23T17:21:29.015Z,24.04
2023-08-23T17:24:00.186Z,23.96
2023-08-23T17:26:30.299Z,23.89
2023-08-23T17:29:00.327Z,23.89
2023-08-23T17:31:30.440Z,23.95
2023-08-23T17:34:00.496Z,24.00
2023-08-23T17:36:31.521Z,24.04
2023-08-23T17:39:01.741Z,24.09
2023-08-23T17:41:31.863Z,24.15
2023-08-23T17:44:02.145Z,24.19
2023-08-23T17:46:49.597Z,24.18
2023-08-23T17:49:19.839Z,24.21
2023-08-23T17:51:52.290Z,24.24
2023-08-23T17:54:24.462Z,24.26
2023-08-23T17:56:54.572Z,24.25
2023-08-23T17:59:25.786Z,24.29
2023-08-23T18:01:55.776Z,24.26
2023-08-23T18:04:26.017Z,24.19
2023-08-23T18:06:56.172Z,24.14
2023-08-23T18:09:26.154Z,24.06
2023-08-23T18:11:57.309Z,24.02
2023-08-23T18:14:27.421Z,23.97
2023-08-23T18:16:57.721Z,23.91
2023-08-23T18:19:27.870Z,23.86
2023-08-23T18:21:59.482Z,23.87
2023-08-23T18:24:29.485Z,23.92
2023-08-23T18:26:59.879Z,23.96
2023-08-23T18:29:31.092Z,24.02
2023-08-23T18:32:01.256Z,24.05
2023-08-23T18:34:32.911Z,24.13
2023-08-23T18:37:02.934Z,24.04
2023-08-23T18:39:33.072Z,24.04
2023-08-23T18:42:03.201Z,24.14
2023-08-23T18:44:33.205Z,24.06
2023-08-23T18:47:04.711Z,24.02
2023-08-23T18:49:36.224Z,23.96
2023-08-23T18:52:06.566Z,23.91
2023-08-23T18:54:36.523Z,23.86
2023-08-23T18:57:07.279Z,23.86
2023-08-23T18:59:38.563Z,23.90
2023-08-23T19:02:08.770Z,23.95
2023-08-23T19:04:39.931Z,23.99
2023-08-23T19:07:10.022Z,24.03
2023-08-23T19:09:39.927Z,24.03
2023-08-23T19:12:11.622Z,24.12
2023-08-23T19:14:41.769Z,24.18
2023-08-23T19:17:14.130Z,24.21
2023-08-23T19:19:46.852Z,24.19
2023-08-23T19:22:17.247Z,24.15
2023-08-23T19:24:47.299Z,24.18
2023-08-23T19:27:17.726Z,24.20
2023-08-23T19:29:47.979Z,24.24
2023-08-23T19:32:17.901Z,24.27
2023-08-23T19:34:47.976Z,24.32
2023-08-23T19:37:18.346Z,24.33
2023-08-23T19:39:48.494Z,24.37
2023-08-23T19:42:18.449Z,24.39
2023-08-23T19:44:49.668Z,24.43
2023-08-23T19:47:19.931Z,24.49
2023-08-23T19:49:50.227Z,24.50
2023-08-23T19:52:20.164Z,24.50
2023-08-23T19:54:50.453Z,24.49
2023-08-23T19:57:32.383Z,24.47
2023-08-23T20:00:08.775Z,24.49
2023-08-23T20:02:40.341Z,24.52
2023-08-23T20:05:12.725Z,24.58
2023-08-23T20:07:42.604Z,24.62
2023-08-23T20:10:12.884Z,24.64
2023-08-23T20:12:42.947Z,24.67
2023-08-23T20:15:13.304Z,24.69
2023-08-23T20:17:43.361Z,24.72
2023-08-23T20:20:15.345Z,24.80
2023-08-23T20:22:45.405Z,24.80
2023-08-23T20:25:15.456Z,24.79
2023-08-23T20:27:47.063Z,24.77
2023-08-23T20:30:17.319Z,24.79
2023-08-23T20:32:47.756Z,24.85
2023-08-23T20:35:18.018Z,24.86
2023-08-23T20:37:51.768Z,24.84
2023-08-23T20:40:22.427Z,24.83
2023-08-23T20:42:53.079Z,24.86
2023-08-23T20:45:23.684Z,24.86
2023-08-23T20:47:55.319Z,24.94
2023-08-23T20:50:25.966Z,24.96
2023-08-23T20:52:57.421Z,24.95
2023-08-23T20:55:28.266Z,24.90
2023-08-23T20:57:58.289Z,24.91
2023-08-23T21:00:29.793Z,24.94
2023-08-23T21:02:59.913Z,24.99
2023-08-23T21:05:31.697Z,25.04
2023-08-23T21:08:01.548Z,25.04
2023-08-23T21:10:31.461Z,25.01
2023-08-23T21:13:01.485Z,25.01
2023-08-23T21:15:31.544Z,25.04
2023-08-23T21:18:01.883Z,25.11
2023-08-23T21:20:32.061Z,25.13
2023-08-23T21:23:02.097Z,25.10
2023-08-23T21:25:32.225Z,25.14
2023-08-23T21:28:03.471Z,25.16
2023-08-23T21:30:34.617Z,25.20
2023-08-23T21:33:10.163Z,25.27
2023-08-23T21:35:40.286Z,25.30
2023-08-23T21:38:10.983Z,25.27
2023-08-23T21:40:41.727Z,25.26
2023-08-23T21:43:12.603Z,25.25
2023-08-23T21:45:44.573Z,25.25
2023-08-23T21:48:14.652Z,25.22
2023-08-23T21:50:44.836Z,25.20
2023-08-23T21:53:14.983Z,25.19
2023-08-23T21:55:58.071Z,25.17
2023-08-23T21:58:31.861Z,25.17
2023-08-23T22:01:04.471Z,25.14
2023-08-23T22:03:36.182Z,25.16
2023-08-23T22:06:10.816Z,25.20
2023-08-23T22:08:41.951Z,25.30
2023-08-23T22:11:13.734Z,25.33
2023-08-23T22:13:45.441Z,25.33
2023-08-23T22:16:15.453Z,25.31
2023-08-23T22:18:46.959Z,25.31
2023-08-23T22:21:17.092Z,25.30
2023-08-23T22:23:47.366Z,25.30
2023-08-23T22:26:17.370Z,25.30
2023-08-23T22:28:48.601Z,25.29
2023-08-23T22:31:18.805Z,25.28
2023-08-23T22:33:48.968Z,25.27
2023-08-23T22:36:19.182Z,25.27
2023-08-23T22:38:49.197Z,25.27
2023-08-23T22:41:19.462Z,25.25
2023-08-23T22:43:49.448Z,25.23
2023-08-23T22:46:31.635Z,25.24
2023-08-23T22:48:51.168Z,25.24
2023-08-23T22:51:21.243Z,25.22
2023-08-23T22:53:53.013Z,25.21
2023-08-23T22:56:23.036Z,25.22
2023-08-23T22:58:54.578Z,25.26
2023-08-23T23:01:25.809Z,25.43
2023-08-23T23:03:56.810Z,25.41
2023-08-23T23:06:28.045Z,25.41
2023-08-23T23:08:59.038Z,25.41
2023-08-23T23:13:59.120Z,25.38
2023-08-23T23:16:29.274Z,25.37
2023-08-23T23:18:59.164Z,25.34
2023-08-23T23:21:29.178Z,25.33
2023-08-23T23:23:59.505Z,25.32
2023-08-23T23:26:29.420Z,25.31
2023-08-23T23:28:59.369Z,25.29
2023-08-23T23:31:30.366Z,25.28
2023-08-23T23:34:00.636Z,25.26
2023-08-23T23:36:35.271Z,25.28
2023-08-23T23:39:05.337Z,25.30
2023-08-23T23:41:35.292Z,25.35
2023-08-23T23:44:05.423Z,25.41
2023-08-23T23:46:35.548Z,25.42
2023-08-23T23:49:05.759Z,25.42
2023-08-23T23:51:35.798Z,25.38
2023-08-23T23:54:06.348Z,25.36
2023-08-23T23:56:36.262Z,25.33
2023-08-23T23:59:06.216Z,25.29
